sensor_id;sensor_type;location;lat;lon;timestamp;pressure;altitude;pressure_sealevel;temperature;humidity
21658;BME280;10990;48.174;9.782;2023-11-21T00:01:02;93025.66;;;6.70;100.00
21658;BME280;10990;48.174;9.782;2023-11-21T00:03:31;93008.09;;;6.70;100.00
21658;BME280;10990;48.174;9.782;2023-11-21T00:05:57;92999.22;;;6.71;100.00
21658;BME280;10990;48.174;9.782;2023-11-21T00:08:23;92985.06;;;6.72;100.00
21658;BME280;10990;48.174;9.782;2023-11-21T00:10:50;92990.91;;;6.68;100.00
21658;BME280;10990;48.174;9.782;2023-11-21T00:13:16;92980.19;;;6.69;100.00
21658;BME280;10990;48.174;9.782;2023-11-21T00:15:42;92967.84;;;6.63;100.00
21658;BME280;10990;48.174;9.782;2023-11-21T00:18:08;92960.75;;;6.64;100.00
21658;BME280;10990;48.174;9.782;2023-11-21T00:20:37;92952.72;;;6.65;100.00
21658;BME280;10990;48.174;9.782;2023-11-21T00:23:03;92937.38;;;6.69;100.00
21658;BME280;10990;48.174;9.782;2023-11-21T00:25:29;92935.38;;;6.71;100.00
21658;BME280;10990;48.174;9.782;2023-11-21T00:27:55;92921.06;;;6.80;100.00
21658;BME280;10990;48.174;9.782;2023-11-21T00:30:21;92919.47;;;6.79;100.00
21658;BME280;10990;48.174;9.782;2023-11-21T00:32:47;92906.91;;;6.81;100.00
21658;BME280;10990;48.174;9.782;2023-11-21T00:35:14;92905.31;;;6.80;100.00
21658;BME280;10990;48.174;9.782;2023-11-21T00:37:42;92888.94;;;6.78;100.00
21658;BME280;10990;48.174;9.782;2023-11-21T00:40:10;92877.59;;;6.71;100.00
21658;BME280;10990;48.174;9.782;2023-11-21T00:42:37;92873.94;;;6.65;100.00
21658;BME280;10990;48.174;9.782;2023-11-21T00:45:03;92869.47;;;6.59;100.00
21658;BME280;10990;48.174;9.782;2023-11-21T00:47:30;92857.53;;;6.63;100.00
21658;BME280;10990;48.174;9.782;2023-11-21T00:49:56;92852.88;;;6.59;100.00
21658;BME280;10990;48.174;9.782;2023-11-21T00:52:22;92853.50;;;6.61;100.00
21658;BME280;10990;48.174;9.782;2023-11-21T00:54:51;92841.16;;;6.61;100.00
21658;BME280;10990;48.174;9.782;2023-11-21T00:57:17;92840.56;;;6.59;100.00
21658;BME280;10990;48.174;9.782;2023-11-21T00:59:43;92838.91;;;6.51;100.00
21658;BME280;10990;48.174;9.782;2023-11-21T01:02:09;92849.66;;;6.57;100.00
21658;BME280;10990;48.174;9.782;2023-11-21T01:04:35;92843.16;;;6.53;100.00
21658;BME280;10990;48.174;9.782;2023-11-21T01:07:01;92845.59;;;6.54;100.00
21658;BME280;10990;48.174;9.782;2023-11-21T01:09:27;92833.50;;;6.60;100.00
21658;BME280;10990;48.174;9.782;2023-11-21T01:11:56;92832.69;;;6.59;100.00
21658;BME280;10990;48.174;9.782;2023-11-21T01:14:22;92819.97;;;6.63;100.00
21658;BME280;10990;48.174;9.782;2023-11-21T01:16:48;92812.91;;;6.63;100.00
21658;BME280;10990;48.174;9.782;2023-11-21T01:19:15;92814.91;;;6.61;100.00
21658;BME280;10990;48.174;9.782;2023-11-21T01:21:41;92805.44;;;6.67;100.00
21658;BME280;10990;48.174;9.782;2023-11-21T01:24:07;92800.59;;;6.64;100.00
21658;BME280;10990;48.174;9.782;2023-11-21T01:26:34;92807.66;;;6.63;100.00
21658;BME280;10990;48.174;9.782;2023-11-21T01:29:04;92813.31;;;6.67;100.00
21658;BME280;10990;48.174;9.782;2023-11-21T01:31:30;92807.66;;;6.63;100.00
21658;BME280;10990;48.174;9.782;2023-11-21T01:33:56;92805.25;;;6.62;100.00
21658;BME280;10990;48.174;9.782;2023-11-21T01:36:22;92808.47;;;6.64;100.00
21658;BME280;10990;48.174;9.782;2023-11-21T01:38:48;92800.19;;;6.67;100.00
21658;BME280;10990;48.174;9.782;2023-11-21T01:41:16;92801.38;;;6.64;100.00
21658;BME280;10990;48.174;9.782;2023-11-21T01:43:42;92814.50;;;6.58;100.00
21658;BME280;10990;48.174;9.782;2023-11-21T01:46:11;92801.38;;;6.64;100.00
21658;BME280;10990;48.174;9.782;2023-11-21T01:48:37;92797.31;;;6.55;100.00
21658;BME280;10990;48.174;9.782;2023-11-21T01:51:04;92787.44;;;6.57;100.00
21658;BME280;10990;48.174;9.782;2023-11-21T01:53:30;92774.50;;;6.56;100.00
21658;BME280;10990;48.174;9.782;2023-11-21T01:55:56;92764.81;;;6.56;100.00
21658;BME280;10990;48.174;9.782;2023-11-21T01:58:22;92751.06;;;6.54;100.00
21658;BME280;10990;48.174;9.782;2023-11-21T02:00:48;92746.81;;;6.53;100.00
21658;BME280;10990;48.174;9.782;2023-11-21T02:03:17;92734.31;;;6.55;100.00
21658;BME280;10990;48.174;9.782;2023-11-21T02:05:43;92727.44;;;6.54;100.00
21658;BME280;10990;48.174;9.782;2023-11-21T02:08:10;92717.75;;;6.48;100.00
21658;BME280;10990;48.174;9.782;2023-11-21T02:10:36;92717.31;;;6.44;100.00
21658;BME280;10990;48.174;9.782;2023-11-21T02:13:02;92707.25;;;6.48;100.00
21658;BME280;10990;48.174;9.782;2023-11-21T02:15:28;92695.50;;;6.44;100.00
21658;BME280;10990;48.174;9.782;2023-11-21T02:17:55;92687.41;;;6.39;100.00
21658;BME280;10990;48.174;9.782;2023-11-21T02:20:24;92674.09;;;6.47;100.00
21658;BME280;10990;48.174;9.782;2023-11-21T02:22:54;92678.94;;;6.43;100.00
21658;BME280;10990;48.174;9.782;2023-11-21T02:25:20;92669.25;;;6.44;100.00
21658;BME280;10990;48.174;9.782;2023-11-21T02:27:46;92670.88;;;6.45;100.00
21658;BME280;10990;48.174;9.782;2023-11-21T02:30:14;92673.09;;;6.41;100.00
21658;BME280;10990;48.174;9.782;2023-11-21T02:32:40;92671.63;;;6.25;100.00
21658;BME280;10990;48.174;9.782;2023-11-21T02:35:07;92661.56;;;6.29;100.00
21658;BME280;10990;48.174;9.782;2023-11-21T02:37:33;92652.06;;;6.35;100.00
21658;BME280;10990;48.174;9.782;2023-11-21T02:40:03;92653.47;;;6.31;100.00
21658;BME280;10990;48.174;9.782;2023-11-21T02:42:29;92647.00;;;6.26;100.00
21658;BME280;10990;48.174;9.782;2023-11-21T02:44:55;92644.78;;;6.23;100.00
21658;BME280;10990;48.174;9.782;2023-11-21T02:47:21;92638.94;;;6.28;100.00
21658;BME280;10990;48.174;9.782;2023-11-21T02:49:48;92643.56;;;6.26;100.00
21658;BME280;10990;48.174;9.782;2023-11-21T02:52:14;92635.31;;;6.22;100.00
21658;BME280;10990;48.174;9.782;2023-11-21T02:54:40;92641.13;;;6.18;100.00
21658;BME280;10990;48.174;9.782;2023-11-21T02:57:09;92632.69;;;6.22;100.00
21658;BME280;10990;48.174;9.782;2023-11-21T02:59:35;92627.22;;;6.24;100.00
21658;BME280;10990;48.174;9.782;2023-11-21T03:02:01;92620.53;;;6.21;100.00
21658;BME280;10990;48.174;9.782;2023-11-21T03:04:27;92624.38;;;6.19;100.00
21658;BME280;10990;48.174;9.782;2023-11-21T03:06:53;92624.59;;;6.24;100.00
21658;BME280;10990;48.174;9.782;2023-11-21T03:09:19;92611.88;;;6.21;100.00
21658;BME280;10990;48.174;9.782;2023-11-21T03:11:45;92617.72;;;6.23;100.00
21658;BME280;10990;48.174;9.782;2023-11-21T03:14:14;92605.19;;;6.25;100.00
21658;BME280;10990;48.174;9.782;2023-11-21T03:16:40;92612.25;;;6.18;100.00
21658;BME280;10990;48.174;9.782;2023-11-21T03:19:06;92598.16;;;6.25;100.00
21658;BME280;10990;48.174;9.782;2023-11-21T03:21:33;92593.72;;;6.26;100.00
21658;BME280;10990;48.174;9.782;2023-11-21T03:23:59;92603.19;;;6.20;100.00
21658;BME280;10990;48.174;9.782;2023-11-21T03:26:25;92601.78;;;6.24;100.00
21658;BME280;10990;48.174;9.782;2023-11-21T03:28:51;92603.41;;;6.25;100.00
21658;BME280;10990;48.174;9.782;2023-11-21T03:31:20;92600.56;;;6.27;100.00
21658;BME280;10990;48.174;9.782;2023-11-21T03:33:46;92597.75;;;6.28;100.00
21658;BME280;10990;48.174;9.782;2023-11-21T03:36:12;92589.28;;;6.26;100.00
21658;BME280;10990;48.174;9.782;2023-11-21T03:38:38;92584.44;;;6.30;100.00
21658;BME280;10990;48.174;9.782;2023-11-21T03:41:05;92586.88;;;6.32;100.00
21658;BME280;10990;48.174;9.782;2023-11-21T03:43:31;92603.81;;;6.29;100.00
21658;BME280;10990;48.174;9.782;2023-11-21T03:45:57;92597.16;;;6.26;100.00
21658;BME280;10990;48.174;9.782;2023-11-21T03:48:26;92593.91;;;6.24;100.00
21658;BME280;10990;48.174;9.782;2023-11-21T03:50:52;92592.91;;;6.25;100.00
21658;BME280;10990;48.174;9.782;2023-11-21T03:53:18;92597.53;;;6.23;100.00
21658;BME280;10990;48.174;9.782;2023-11-21T03:55:45;92597.31;;;6.25;100.00
21658;BME280;10990;48.174;9.782;2023-11-21T03:58:11;92591.28;;;6.24;100.00
21658;BME280;10990;48.174;9.782;2023-11-21T04:00:37;92588.47;;;6.33;100.00
21658;BME280;10990;48.174;9.782;2023-11-21T04:03:04;92591.09;;;6.33;100.00
21658;BME280;10990;48.174;9.782;2023-11-21T04:05:32;92597.16;;;6.33;100.00
21658;BME280;10990;48.174;9.782;2023-11-21T04:07:58;92594.94;;;6.37;100.00
21658;BME280;10990;48.174;9.782;2023-11-21T04:10:24;92590.69;;;6.36;100.00
21658;BME280;10990;48.174;9.782;2023-11-21T04:12:51;92602.59;;;6.32;100.00
21658;BME280;10990;48.174;9.782;2023-11-21T04:15:17;92602.22;;;6.41;100.00
21658;BME280;10990;48.174;9.782;2023-11-21T04:17:43;92604.44;;;6.38;100.00
21658;BME280;10990;48.174;9.782;2023-11-21T04:20:09;92610.69;;;6.37;100.00
21658;BME280;10990;48.174;9.782;2023-11-21T04:22:39;92593.53;;;6.41;100.00
21658;BME280;10990;48.174;9.782;2023-11-21T04:25:06;92609.69;;;6.38;100.00
21658;BME280;10990;48.174;9.782;2023-11-21T04:27:32;92603.22;;;6.34;100.00
21658;BME280;10990;48.174;9.782;2023-11-21T04:29:58;92608.88;;;6.37;100.00
21658;BME280;10990;48.174;9.782;2023-11-21T04:32:24;92607.47;;;6.35;100.00
21658;BME280;10990;48.174;9.782;2023-11-21T04:34:50;92608.47;;;6.40;100.00
21658;BME280;10990;48.174;9.782;2023-11-21T04:37:16;92603.22;;;6.40;100.00
21658;BME280;10990;48.174;9.782;2023-11-21T04:39:45;92609.88;;;6.36;100.00
21658;BME280;10990;48.174;9.782;2023-11-21T04:42:11;92609.69;;;6.38;100.00
21658;BME280;10990;48.174;9.782;2023-11-21T04:44:38;92605.84;;;6.40;100.00
21658;BME280;10990;48.174;9.782;2023-11-21T04:47:04;92615.94;;;6.43;100.00
21658;BME280;10990;48.174;9.782;2023-11-21T04:49:30;92619.16;;;6.39;100.00
21658;BME280;10990;48.174;9.782;2023-11-21T04:51:56;92611.50;;;6.37;100.00
21658;BME280;10990;48.174;9.782;2023-11-21T04:54:23;92614.72;;;6.33;100.00
21658;BME280;10990;48.174;9.782;2023-11-21T04:56:51;92613.50;;;6.35;100.00
21658;BME280;10990;48.174;9.782;2023-11-21T04:59:18;92616.13;;;6.28;100.00
21658;BME280;10990;48.174;9.782;2023-11-21T05:01:44;92613.91;;;6.32;100.00
21658;BME280;10990;48.174;9.782;2023-11-21T05:04:10;92615.13;;;6.29;100.00
21658;BME280;10990;48.174;9.782;2023-11-21T05:06:36;92618.13;;;6.26;100.00
21658;BME280;10990;48.174;9.782;2023-11-21T05:09:02;92622.19;;;6.22;100.00
21658;BME280;10990;48.174;9.782;2023-11-21T05:11:29;92622.53;;;6.19;100.00
21658;BME280;10990;48.174;9.782;2023-11-21T05:13:57;92621.56;;;6.20;100.00
21658;BME280;10990;48.174;9.782;2023-11-21T05:16:25;92626.81;;;6.20;100.00
21658;BME280;10990;48.174;9.782;2023-11-21T05:18:52;92620.16;;;6.24;100.00
21658;BME280;10990;48.174;9.782;2023-11-21T05:21:18;92623.56;;;6.25;100.00
21658;BME280;10990;48.174;9.782;2023-11-21T05:23:44;92614.31;;;6.22;100.00
21658;BME280;10990;48.174;9.782;2023-11-21T05:26:10;92626.19;;;6.25;100.00
21658;BME280;10990;48.174;9.782;2023-11-21T05:28:36;92631.44;;;6.18;100.00
21658;BME280;10990;48.174;9.782;2023-11-21T05:31:05;92630.25;;;6.27;100.00
21658;BME280;10990;48.174;9.782;2023-11-21T05:33:31;92630.47;;;6.33;100.00
21658;BME280;10990;48.174;9.782;2023-11-21T05:35:57;92634.28;;;6.30;100.00
21658;BME280;10990;48.174;9.782;2023-11-21T05:38:23;92632.47;;;6.31;100.00
21658;BME280;10990;48.174;9.782;2023-11-21T05:40:49;92633.88;;;6.26;100.00
21658;BME280;10990;48.174;9.782;2023-11-21T05:43:15;92636.50;;;6.26;100.00
21658;BME280;10990;48.174;9.782;2023-11-21T05:45:41;92638.34;;;6.33;100.00
21658;BME280;10990;48.174;9.782;2023-11-21T05:48:10;92639.19;;;6.40;100.00
21658;BME280;10990;48.174;9.782;2023-11-21T05:50:36;92644.38;;;6.33;100.00
21658;BME280;10990;48.174;9.782;2023-11-21T05:53:02;92633.94;;;6.40;100.00
21658;BME280;10990;48.174;9.782;2023-11-21T05:55:28;92643.41;;;6.41;100.00
21658;BME280;10990;48.174;9.782;2023-11-21T05:57:55;92644.81;;;6.37;100.00
21658;BME280;10990;48.174;9.782;2023-11-21T06:00:21;92651.50;;;6.39;100.00
21658;BME280;10990;48.174;9.782;2023-11-21T06:02:47;92649.88;;;6.45;100.00
21658;BME280;10990;48.174;9.782;2023-11-21T06:05:17;92653.50;;;6.44;100.00
21658;BME280;10990;48.174;9.782;2023-11-21T06:07:44;92651.28;;;6.47;100.00
21658;BME280;10990;48.174;9.782;2023-11-21T06:10:11;92660.56;;;6.37;100.00
21658;BME280;10990;48.174;9.782;2023-11-21T06:12:37;92649.50;;;6.48;100.00
21658;BME280;10990;48.174;9.782;2023-11-21T06:15:05;92651.69;;;6.44;100.00
21658;BME280;10990;48.174;9.782;2023-11-21T06:17:32;92655.31;;;6.43;100.00
21658;BME280;10990;48.174;9.782;2023-11-21T06:19:58;92656.53;;;6.41;100.00
21658;BME280;10990;48.174;9.782;2023-11-21T06:22:26;92660.97;;;6.34;100.00
21658;BME280;10990;48.174;9.782;2023-11-21T06:24:53;92668.63;;;6.35;100.00
21658;BME280;10990;48.174;9.782;2023-11-21T06:27:19;92676.91;;;6.39;100.00
21658;BME280;10990;48.174;9.782;2023-11-21T06:29:45;92673.88;;;6.35;100.00
21658;BME280;10990;48.174;9.782;2023-11-21T06:32:11;92674.50;;;6.44;100.00
21658;BME280;10990;48.174;9.782;2023-11-21T06:34:37;92681.13;;;6.33;100.00
21658;BME280;10990;48.174;9.782;2023-11-21T06:37:03;92692.03;;;6.30;100.00
21658;BME280;10990;48.174;9.782;2023-11-21T06:39:32;92685.97;;;6.36;100.00
21658;BME280;10990;48.174;9.782;2023-11-21T06:41:58;92687.63;;;6.37;100.00
21658;BME280;10990;48.174;9.782;2023-11-21T06:44:24;92694.06;;;6.35;100.00
21658;BME280;10990;48.174;9.782;2023-11-21T06:46:50;92693.66;;;6.38;100.00
21658;BME280;10990;48.174;9.782;2023-11-21T06:49:17;92688.41;;;6.31;100.00
21658;BME280;10990;48.174;9.782;2023-11-21T06:51:43;92687.41;;;6.32;100.00
21658;BME280;10990;48.174;9.782;2023-11-21T06:54:09;92699.31;;;6.28;100.00
21658;BME280;10990;48.174;9.782;2023-11-21T06:56:37;92694.25;;;6.33;100.00
21658;BME280;10990;48.174;9.782;2023-11-21T06:59:04;92699.50;;;6.26;100.00
21658;BME280;10990;48.174;9.782;2023-11-21T07:01:30;92707.75;;;6.23;100.00
21658;BME280;10990;48.174;9.782;2023-11-21T07:03:56;92698.31;;;6.36;100.00
21658;BME280;10990;48.174;9.782;2023-11-21T07:06:22;92703.75;;;6.34;100.00
21658;BME280;10990;48.174;9.782;2023-11-21T07:08:49;92706.03;;;6.50;100.00
21658;BME280;10990;48.174;9.782;2023-11-21T07:11:15;92721.97;;;6.42;100.00
21658;BME280;10990;48.174;9.782;2023-11-21T07:13:43;92723.97;;;6.40;100.00
21658;BME280;10990;48.174;9.782;2023-11-21T07:16:10;92723.59;;;6.50;100.00
21658;BME280;10990;48.174;9.782;2023-11-21T07:18:36;92725.00;;;6.46;100.00
21658;BME280;10990;48.174;9.782;2023-11-21T07:21:02;92723.41;;;6.51;100.00
21658;BME280;10990;48.174;9.782;2023-11-21T07:23:28;92723.44;;;6.65;100.00
21658;BME280;10990;48.174;9.782;2023-11-21T07:25:55;92729.50;;;6.72;100.00
21658;BME280;10990;48.174;9.782;2023-11-21T07:28:21;92740.25;;;6.84;100.00
21658;BME280;10990;48.174;9.782;2023-11-21T07:30:50;92739.84;;;6.87;100.00
21658;BME280;10990;48.174;9.782;2023-11-21T07:33:16;92739.84;;;6.87;100.00
21658;BME280;10990;48.174;9.782;2023-11-21T07:35:42;92745.72;;;6.89;100.00
21658;BME280;10990;48.174;9.782;2023-11-21T07:38:08;92739.66;;;6.95;100.00
21658;BME280;10990;48.174;9.782;2023-11-21T07:40:34;92741.47;;;6.94;100.00
21658;BME280;10990;48.174;9.782;2023-11-21T07:43:00;92753.59;;;6.89;100.00
21658;BME280;10990;48.174;9.782;2023-11-21T07:45:28;92765.53;;;6.85;100.00
21658;BME280;10990;48.174;9.782;2023-11-21T07:47:56;92766.31;;;6.79;100.00
21658;BME280;10990;48.174;9.782;2023-11-21T07:50:22;92767.91;;;6.80;100.00
21658;BME280;10990;48.174;9.782;2023-11-21T07:52:49;92766.94;;;6.87;100.00
21658;BME280;10990;48.174;9.782;2023-11-21T07:55:15;92768.94;;;6.85;100.00
21658;BME280;10990;48.174;9.782;2023-11-21T07:57:41;92768.38;;;6.90;100.00
21658;BME280;10990;48.174;9.782;2023-11-21T08:00:08;92774.25;;;7.05;100.00
21658;BME280;10990;48.174;9.782;2023-11-21T08:02:38;92777.69;;;7.06;100.00
21658;BME280;10990;48.174;9.782;2023-11-21T08:05:07;92775.50;;;7.23;100.00
21658;BME280;10990;48.174;9.782;2023-11-21T08:07:34;92773.69;;;7.36;100.00
21658;BME280;10990;48.174;9.782;2023-11-21T08:10:00;92766.03;;;7.55;100.00
21658;BME280;10990;48.174;9.782;2023-11-21T08:12:26;92788.25;;;7.66;100.00
21658;BME280;10990;48.174;9.782;2023-11-21T08:14:52;92807.66;;;7.51;100.00
21658;BME280;10990;48.174;9.782;2023-11-21T08:17:18;92793.09;;;7.82;100.00
21658;BME280;10990;48.174;9.782;2023-11-21T08:19:45;92803.03;;;7.86;100.00
21658;BME280;10990;48.174;9.782;2023-11-21T08:22:13;92801.19;;;8.07;100.00
21658;BME280;10990;48.174;9.782;2023-11-21T08:24:39;92833.41;;;7.69;100.00
21658;BME280;10990;48.174;9.782;2023-11-21T08:27:05;92832.16;;;7.65;100.00
21658;BME280;10990;48.174;9.782;2023-11-21T08:29:31;92830.13;;;7.74;100.00
21658;BME280;10990;48.174;9.782;2023-11-21T08:31:58;92845.94;;;7.60;100.00
21658;BME280;10990;48.174;9.782;2023-11-21T08:34:24;92840.06;;;7.52;100.00
21658;BME280;10990;48.174;9.782;2023-11-21T08:36:50;92835.00;;;7.63;100.00
21658;BME280;10990;48.174;9.782;2023-11-21T08:39:18;92833.97;;;7.91;100.00
21658;BME280;10990;48.174;9.782;2023-11-21T08:41:45;92833.97;;;8.04;100.00
21658;BME280;10990;48.174;9.782;2023-11-21T08:44:11;92815.72;;;8.49;100.00
21658;BME280;10990;48.174;9.782;2023-11-21T08:46:37;92778.78;;;9.96;100.00
21658;BME280;10990;48.174;9.782;2023-11-21T08:49:03;92831.59;;;9.33;100.00
21658;BME280;10990;48.174;9.782;2023-11-21T08:51:29;92835.53;;;9.49;100.00
21658;BME280;10990;48.174;9.782;2023-11-21T08:53:55;92848.59;;;9.43;100.00
21658;BME280;10990;48.174;9.782;2023-11-21T08:56:24;92878.09;;;9.20;100.00
21658;BME280;10990;48.174;9.782;2023-11-21T08:58:50;92871.06;;;9.53;100.00
21658;BME280;10990;48.174;9.782;2023-11-21T09:01:16;92905.88;;;9.30;100.00
21658;BME280;10990;48.174;9.782;2023-11-21T09:03:42;92910.34;;;9.23;100.00
21658;BME280;10990;48.174;9.782;2023-11-21T09:06:09;92925.38;;;9.22;100.00
21658;BME280;10990;48.174;9.782;2023-11-21T09:08:35;92924.94;;;9.25;100.00
21658;BME280;10990;48.174;9.782;2023-11-21T09:11:01;92955.88;;;8.91;100.00
21658;BME280;10990;48.174;9.782;2023-11-21T09:13:30;92958.53;;;8.71;100.00
21658;BME280;10990;48.174;9.782;2023-11-21T09:15:56;92971.09;;;8.49;100.00
21658;BME280;10990;48.174;9.782;2023-11-21T09:18:23;92966.63;;;8.50;100.00
21658;BME280;10990;48.174;9.782;2023-11-21T09:20:49;92981.03;;;8.54;100.00
21658;BME280;10990;48.174;9.782;2023-11-21T09:23:15;92996.38;;;8.24;100.00
21658;BME280;10990;48.174;9.782;2023-11-21T09:25:41;92995.34;;;8.18;100.00
21658;BME280;10990;48.174;9.782;2023-11-21T09:28:07;92997.41;;;8.23;100.00
21658;BME280;10990;48.174;9.782;2023-11-21T09:30:36;92989.16;;;8.46;100.00
21658;BME280;10990;48.174;9.782;2023-11-21T09:33:03;92981.84;;;8.68;100.00
21658;BME280;10990;48.174;9.782;2023-11-21T09:35:30;92976.47;;;9.28;100.00
21658;BME280;10990;48.174;9.782;2023-11-21T09:37:56;92989.41;;;9.36;100.00
21658;BME280;10990;48.174;9.782;2023-11-21T09:40:22;93001.31;;;9.58;100.00
21658;BME280;10990;48.174;9.782;2023-11-21T09:42:53;92991.91;;;10.14;100.00
21658;BME280;10990;48.174;9.782;2023-11-21T09:45:25;92960.28;;;11.26;100.00
21658;BME280;10990;48.174;9.782;2023-11-21T09:47:55;92973.94;;;11.78;100.00
21658;BME280;10990;48.174;9.782;2023-11-21T09:50:22;93033.97;;;11.48;100.00
21658;BME280;10990;48.174;9.782;2023-11-21T09:52:54;93050.13;;;11.76;100.00
21658;BME280;10990;48.174;9.782;2023-11-21T09:55:21;93076.50;;;11.89;100.00
21658;BME280;10990;48.174;9.782;2023-11-21T09:57:47;93085.28;;;12.39;100.00
21658;BME280;10990;48.174;9.782;2023-11-21T10:00:14;93128.88;;;11.87;100.00
21658;BME280;10990;48.174;9.782;2023-11-21T10:02:41;93173.25;;;11.42;100.00
21658;BME280;10990;48.174;9.782;2023-11-21T10:05:10;93144.56;;;12.74;100.00
21658;BME280;10990;48.174;9.782;2023-11-21T10:07:36;93173.47;;;12.64;100.00
21658;BME280;10990;48.174;9.782;2023-11-21T10:10:05;93239.19;;;12.00;100.00
21658;BME280;10990;48.174;9.782;2023-11-21T10:12:32;93126.31;;;15.01;100.00
21658;BME280;10990;48.174;9.782;2023-11-21T10:14:59;93203.44;;;16.43;100.00
21658;BME280;10990;48.174;9.782;2023-11-21T10:17:27;93456.16;;;16.48;100.00
21658;BME280;10990;48.174;9.782;2023-11-21T10:19:54;93688.34;;;17.45;100.00
21658;BME280;10990;48.174;9.782;2023-11-21T10:22:24;94027.63;;;17.76;100.00
21658;BME280;10990;48.174;9.782;2023-11-21T10:24:50;94298.41;;;16.86;100.00
21658;BME280;10990;48.174;9.782;2023-11-21T10:27:16;94503.44;;;17.77;100.00
21658;BME280;10990;48.174;9.782;2023-11-21T10:29:42;94838.25;;;14.52;100.00
21658;BME280;10990;48.174;9.782;2023-11-21T10:32:08;94647.09;;;15.50;100.00
21658;BME280;10990;48.174;9.782;2023-11-21T10:34:35;94742.13;;;13.77;100.00
21658;BME280;10990;48.174;9.782;2023-11-21T10:37:11;94675.72;;;13.13;100.00
21658;BME280;10990;48.174;9.782;2023-11-21T10:39:40;94588.31;;;12.90;100.00
21658;BME280;10990;48.174;9.782;2023-11-21T10:42:08;94580.69;;;12.44;100.00
21658;BME280;10990;48.174;9.782;2023-11-21T10:44:34;94529.94;;;12.25;100.00
21658;BME280;10990;48.174;9.782;2023-11-21T10:47:00;94557.13;;;11.68;100.00
21658;BME280;10990;48.174;9.782;2023-11-21T10:49:27;94527.63;;;11.56;100.00
21658;BME280;10990;48.174;9.782;2023-11-21T10:51:53;94459.38;;;11.52;100.00
21658;BME280;10990;48.174;9.782;2023-11-21T10:54:20;94400.03;;;11.46;100.00
21658;BME280;10990;48.174;9.782;2023-11-21T10:56:50;94362.66;;;11.19;100.00
21658;BME280;10990;48.174;9.782;2023-11-21T10:59:19;94313.50;;;11.10;100.00
21658;BME280;10990;48.174;9.782;2023-11-21T11:01:45;94276.06;;;11.13;100.00
21658;BME280;10990;48.174;9.782;2023-11-21T11:04:12;94222.59;;;11.18;100.00
21658;BME280;10990;48.174;9.782;2023-11-21T11:06:39;94200.84;;;11.22;100.00
21658;BME280;10990;48.174;9.782;2023-11-21T11:09:06;94183.97;;;11.02;100.00
21658;BME280;10990;48.174;9.782;2023-11-21T11:11:32;94152.53;;;11.14;100.00
21658;BME280;10990;48.174;9.782;2023-11-21T11:14:01;94111.66;;;11.44;100.00
21658;BME280;10990;48.174;9.782;2023-11-21T11:16:27;94111.47;;;11.46;100.00
21658;BME280;10990;48.174;9.782;2023-11-21T11:18:54;94131.22;;;11.00;100.00
21658;BME280;10990;48.174;9.782;2023-11-21T11:21:27;94117.13;;;10.93;100.00
21658;BME280;10990;48.174;9.782;2023-11-21T11:24:25;94098.88;;;10.98;100.00
21658;BME280;10990;48.174;9.782;2023-11-21T11:26:57;94076.34;;;11.09;100.00
21658;BME280;10990;48.174;9.782;2023-11-21T11:29:35;94083.06;;;11.05;100.00
21658;BME280;10990;48.174;9.782;2023-11-21T11:32:16;94059.09;;;11.13;100.00
21658;BME280;10990;48.174;9.782;2023-11-21T11:34:48;94056.88;;;10.89;100.00
21658;BME280;10990;48.174;9.782;2023-11-21T11:37:19;94036.66;;;11.09;100.00
21658;BME280;10990;48.174;9.782;2023-11-21T11:39:45;94034.88;;;11.10;100.00
21658;BME280;10990;48.174;9.782;2023-11-21T11:42:13;94021.00;;;11.08;100.00
21658;BME280;10990;48.174;9.782;2023-11-21T11:44:54;94025.03;;;11.04;100.00
21658;BME280;10990;48.174;9.782;2023-11-21T11:47:21;94047.81;;;10.76;100.00
21658;BME280;10990;48.174;9.782;2023-11-21T11:49:58;94037.69;;;10.80;100.00
21658;BME280;10990;48.174;9.782;2023-11-21T11:52:36;94054.50;;;10.51;100.00
21658;BME280;10990;48.174;9.782;2023-11-21T11:55:03;94061.09;;;10.40;100.00
21658;BME280;10990;48.174;9.782;2023-11-21T11:57:30;94030.16;;;10.34;100.00
21658;BME280;10990;48.174;9.782;2023-11-21T12:00:15;94012.28;;;10.21;100.00
21658;BME280;10990;48.174;9.782;2023-11-21T12:02:43;93972.13;;;10.47;100.00
21658;BME280;10990;48.174;9.782;2023-11-21T12:05:11;93920.13;;;10.54;100.00
21658;BME280;10990;48.174;9.782;2023-11-21T12:07:48;93938.34;;;10.43;100.00
21658;BME280;10990;48.174;9.782;2023-11-21T12:10:16;93938.81;;;10.53;100.00
21658;BME280;10990;48.174;9.782;2023-11-21T12:12:43;93958.53;;;10.50;100.00
21658;BME280;10990;48.174;9.782;2023-11-21T12:15:10;93954.19;;;10.43;100.00
21658;BME280;10990;48.174;9.782;2023-11-21T12:17:39;93945.94;;;10.52;100.00
21658;BME280;10990;48.174;9.782;2023-11-21T12:20:07;93928.94;;;10.62;100.00
21658;BME280;10990;48.174;9.782;2023-11-21T12:22:33;93935.81;;;10.84;100.00
21658;BME280;10990;48.174;9.782;2023-11-21T12:24:59;93948.03;;;10.92;100.00
21658;BME280;10990;48.174;9.782;2023-11-21T12:27:25;93961.50;;;10.97;100.00
21658;BME280;10990;48.174;9.782;2023-11-21T12:29:51;93983.72;;;11.03;100.00
21658;BME280;10990;48.174;9.782;2023-11-21T12:32:18;94014.13;;;10.85;100.00
21658;BME280;10990;48.174;9.782;2023-11-21T12:34:46;94044.50;;;10.46;100.00
21658;BME280;10990;48.174;9.782;2023-11-21T12:37:13;94041.81;;;10.25;100.00
21658;BME280;10990;48.174;9.782;2023-11-21T12:39:39;94021.63;;;10.17;100.00
21658;BME280;10990;48.174;9.782;2023-11-21T12:42:05;94026.81;;;10.10;100.00
21658;BME280;10990;48.174;9.782;2023-11-21T12:44:31;94015.75;;;10.00;100.00
21658;BME280;10990;48.174;9.782;2023-11-21T12:46:57;93994.91;;;9.91;100.00
21658;BME280;10990;48.174;9.782;2023-11-21T12:49:24;93987.09;;;9.82;100.00
21658;BME280;10990;48.174;9.782;2023-11-21T12:51:52;93979.88;;;9.55;100.00
21658;BME280;10990;48.174;9.782;2023-11-21T12:54:19;93982.69;;;9.53;100.00
21658;BME280;10990;48.174;9.782;2023-11-21T12:56:45;93974.22;;;9.58;100.00